CXA8305 ZSAM-ZGGG
Flight info
| Callsign | CXA8305 |
|---|---|
| Flight time | 1h 8m |
| Altitude | 25600 |
| Route | NUSPA9Z NUSPA W597 IKATA A470 BEBEM R200 GUBLO W22 IDUMA IDUMA9 |
| Aircraft | B738/M-SDE2E3FGHIRWXY/LB1 |
Departure
| Time | 2026-05-04 01:54 |
|---|---|
| Airport | Xiamen Gaoqi International Airport (ZSAM) |
Arrival
| Time | 2026-05-04 03:02 |
|---|---|
| Airport | Guangzhou Baiyun International Airport (ZGGG) |
| Time | Latitude | Longitude | Altitude | Speed | Heading |
|---|---|---|---|---|---|
| 2026-05-04 01:34 | 24.54119 | 118.13034 | 53 ft | 0 kts | 142° |
| 2026-05-04 01:43 | 24.54138 | 118.13018 | 46 ft | 4 kts | 142° |
| 2026-05-04 01:43 | 24.54159 | 118.13000 | 46 ft | 4 kts | 142° |
| 2026-05-04 01:44 | 24.54181 | 118.12982 | 49 ft | 4 kts | 142° |
| 2026-05-04 01:44 | 24.54202 | 118.12964 | 50 ft | 4 kts | 142° |
| 2026-05-04 01:44 | 24.54217 | 118.12951 | 47 ft | 0 kts | 141° |
| 2026-05-04 01:46 | 24.54216 | 118.12952 | 50 ft | 0 kts | 141° |
| 2026-05-04 01:47 | 24.54207 | 118.12960 | 47 ft | 8 kts | 142° |
| 2026-05-04 01:47 | 24.54153 | 118.12948 | 51 ft | 10 kts | 225° |
| 2026-05-04 01:47 | 24.54112 | 118.12893 | 49 ft | 9 kts | 244° |
| 2026-05-04 01:47 | 24.54146 | 118.12836 | 51 ft | 9 kts | 315° |
| 2026-05-04 01:48 | 24.54194 | 118.12792 | 54 ft | 9 kts | 314° |
| 2026-05-04 01:48 | 24.54181 | 118.12730 | 50 ft | 9 kts | 230° |
| 2026-05-04 01:48 | 24.54142 | 118.12677 | 55 ft | 9 kts | 231° |
| 2026-05-04 01:48 | 24.54105 | 118.12625 | 53 ft | 9 kts | 230° |
| 2026-05-04 01:49 | 24.54070 | 118.12574 | 54 ft | 8 kts | 234° |
| 2026-05-04 01:49 | 24.54034 | 118.12525 | 55 ft | 8 kts | 232° |
| 2026-05-04 01:49 | 24.54000 | 118.12478 | 49 ft | 8 kts | 233° |
| 2026-05-04 01:49 | 24.53967 | 118.12432 | 42 ft | 8 kts | 232° |
| 2026-05-04 01:50 | 24.53911 | 118.12354 | 55 ft | 17 kts | 233° |
| 2026-05-04 01:50 | 24.53837 | 118.12250 | 56 ft | 17 kts | 232° |
| 2026-05-04 01:50 | 24.53766 | 118.12150 | 57 ft | 16 kts | 231° |
| 2026-05-04 01:50 | 24.53697 | 118.12054 | 54 ft | 16 kts | 232° |
| 2026-05-04 01:51 | 24.53653 | 118.11993 | 62 ft | 15 kts | 232° |
| 2026-05-04 01:51 | 24.53568 | 118.11874 | 55 ft | 14 kts | 232° |
| 2026-05-04 01:51 | 24.53507 | 118.11789 | 58 ft | 14 kts | 232° |
| 2026-05-04 01:51 | 24.53469 | 118.11735 | 62 ft | 13 kts | 232° |
| 2026-05-04 01:52 | 24.53398 | 118.11627 | 62 ft | 13 kts | 249° |
| 2026-05-04 01:52 | 24.53404 | 118.11565 | 64 ft | 13 kts | 285° |
| 2026-05-04 01:52 | 24.53406 | 118.11554 | 64 ft | 0 kts | 285° |
| 2026-05-04 01:52 | 24.53413 | 118.11531 | 62 ft | 9 kts | 288° |
| 2026-05-04 01:53 | 24.53455 | 118.11478 | 59 ft | 10 kts | 339° |
| 2026-05-04 01:53 | 24.53511 | 118.11508 | 62 ft | 9 kts | 49° |
| 2026-05-04 01:53 | 24.53527 | 118.11529 | 57 ft | 0 kts | 53° |
| 2026-05-04 01:53 | 24.53553 | 118.11566 | 57 ft | 37 kts | 50° |
| 2026-05-04 01:54 | 24.53943 | 118.12112 | 55 ft | 140 kts | 52° |
| 2026-05-04 01:54 | 24.54692 | 118.13181 | 372 ft | 201 kts | 54° |
| 2026-05-04 01:54 | 24.55580 | 118.14499 | 1100 ft | 227 kts | 52° |
| 2026-05-04 01:54 | 24.56552 | 118.15949 | 1988 ft | 243 kts | 53° |
| 2026-05-04 01:55 | 24.57490 | 118.17243 | 3128 ft | 188 kts | 51° |
| 2026-05-04 01:55 | 24.58296 | 118.18312 | 3563 ft | 188 kts | 51° |
| 2026-05-04 01:55 | 24.59130 | 118.19456 | 4141 ft | 195 kts | 51° |
| 2026-05-04 01:55 | 24.59971 | 118.20648 | 4935 ft | 197 kts | 55° |
| 2026-05-04 01:56 | 24.60825 | 118.21887 | 5435 ft | 211 kts | 48° |
| 2026-05-04 01:56 | 24.61793 | 118.23143 | 6002 ft | 217 kts | 56° |
| 2026-05-04 01:56 | 24.62313 | 118.24713 | 6551 ft | 225 kts | 85° |
| 2026-05-04 01:56 | 24.62083 | 118.26442 | 7027 ft | 233 kts | 113° |
| 2026-05-04 01:57 | 24.61191 | 118.27936 | 7526 ft | 236 kts | 140° |
| 2026-05-04 01:57 | 24.59823 | 118.28870 | 8147 ft | 231 kts | 167° |
| 2026-05-04 01:57 | 24.58261 | 118.29064 | 8735 ft | 223 kts | 194° |
| 2026-05-04 01:57 | 24.56847 | 118.28518 | 9427 ft | 212 kts | 219° |
| 2026-05-04 01:58 | 24.55750 | 118.27491 | 10138 ft | 205 kts | 233° |
| 2026-05-04 01:58 | 24.54860 | 118.26281 | 10779 ft | 204 kts | 236° |
| 2026-05-04 01:58 | 24.53990 | 118.25048 | 11407 ft | 204 kts | 236° |
| 2026-05-04 01:58 | 24.53116 | 118.23817 | 12068 ft | 205 kts | 236° |
| 2026-05-04 01:59 | 24.52233 | 118.22581 | 12732 ft | 206 kts | 236° |
| 2026-05-04 01:59 | 24.51345 | 118.21342 | 13415 ft | 207 kts | 236° |
| 2026-05-04 01:59 | 24.50420 | 118.20033 | 13676 ft | 230 kts | 236° |
| 2026-05-04 01:59 | 24.49387 | 118.18564 | 13870 ft | 257 kts | 236° |
| 2026-05-04 02:00 | 24.48250 | 118.16950 | 14058 ft | 284 kts | 236° |
| 2026-05-04 02:00 | 24.46988 | 118.15164 | 14218 ft | 308 kts | 235° |
| 2026-05-04 02:00 | 24.45619 | 118.13246 | 14361 ft | 330 kts | 235° |
| 2026-05-04 02:00 | 24.44167 | 118.11201 | 14480 ft | 348 kts | 234° |
| 2026-05-04 02:01 | 24.42646 | 118.09085 | 14890 ft | 357 kts | 234° |
| 2026-05-04 02:01 | 24.41110 | 118.06931 | 15455 ft | 360 kts | 234° |
| 2026-05-04 02:01 | 24.39579 | 118.04762 | 16131 ft | 359 kts | 234° |
| 2026-05-04 02:01 | 24.38041 | 118.02588 | 16722 ft | 362 kts | 234° |
| 2026-05-04 02:02 | 24.36479 | 118.00389 | 17133 ft | 369 kts | 234° |
| 2026-05-04 02:02 | 24.34891 | 117.98147 | 17636 ft | 374 kts | 234° |
| 2026-05-04 02:02 | 24.33285 | 117.95896 | 18245 ft | 376 kts | 234° |
| 2026-05-04 02:02 | 24.31669 | 117.93637 | 18744 ft | 378 kts | 234° |
| 2026-05-04 02:03 | 24.30042 | 117.91357 | 19175 ft | 380 kts | 234° |
| 2026-05-04 02:03 | 24.28408 | 117.89066 | 19627 ft | 383 kts | 234° |
| 2026-05-04 02:03 | 24.26764 | 117.86759 | 20072 ft | 385 kts | 234° |
| 2026-05-04 02:03 | 24.25107 | 117.84440 | 20513 ft | 387 kts | 234° |
| 2026-05-04 02:04 | 24.23334 | 117.82214 | 20965 ft | 391 kts | 229° |
| 2026-05-04 02:04 | 24.21385 | 117.80110 | 21312 ft | 395 kts | 227° |
| 2026-05-04 02:04 | 24.19381 | 117.78033 | 21740 ft | 397 kts | 227° |
| 2026-05-04 02:04 | 24.17373 | 117.75949 | 22098 ft | 399 kts | 227° |
| 2026-05-04 02:05 | 24.15353 | 117.73848 | 22445 ft | 401 kts | 227° |
| 2026-05-04 02:05 | 24.13339 | 117.71714 | 22688 ft | 406 kts | 227° |
| 2026-05-04 02:05 | 24.11311 | 117.69542 | 22986 ft | 410 kts | 227° |
| 2026-05-04 02:05 | 24.09268 | 117.67349 | 23376 ft | 411 kts | 227° |
| 2026-05-04 02:06 | 24.07250 | 117.65187 | 23731 ft | 412 kts | 227° |
| 2026-05-04 02:06 | 24.05196 | 117.62990 | 24053 ft | 413 kts | 227° |
| 2026-05-04 02:06 | 24.03138 | 117.60785 | 24328 ft | 415 kts | 227° |
| 2026-05-04 02:06 | 24.01069 | 117.58567 | 24599 ft | 417 kts | 227° |
| 2026-05-04 02:07 | 23.99001 | 117.56349 | 24883 ft | 418 kts | 227° |
| 2026-05-04 02:07 | 23.96921 | 117.54120 | 25143 ft | 419 kts | 227° |
| 2026-05-04 02:07 | 23.94836 | 117.51886 | 25388 ft | 420 kts | 228° |
| 2026-05-04 02:07 | 23.92750 | 117.49649 | 25644 ft | 421 kts | 227° |
| 2026-05-04 02:08 | 23.90643 | 117.47394 | 25668 ft | 425 kts | 227° |
| 2026-05-04 02:08 | 23.88522 | 117.45126 | 25694 ft | 428 kts | 227° |
| 2026-05-04 02:08 | 23.86461 | 117.42768 | 25693 ft | 428 kts | 233° |
| 2026-05-04 02:08 | 23.84761 | 117.40111 | 25708 ft | 425 kts | 240° |
| 2026-05-04 02:09 | 23.83348 | 117.37283 | 25692 ft | 424 kts | 245° |
| 2026-05-04 02:09 | 23.82286 | 117.34281 | 25698 ft | 423 kts | 253° |
| 2026-05-04 02:09 | 23.81432 | 117.31206 | 25695 ft | 423 kts | 253° |
| 2026-05-04 02:09 | 23.80593 | 117.28120 | 25692 ft | 423 kts | 253° |
| 2026-05-04 02:10 | 23.79758 | 117.25088 | 25692 ft | 423 kts | 253° |
| 2026-05-04 02:10 | 23.78895 | 117.22017 | 25690 ft | 423 kts | 253° |
| 2026-05-04 02:10 | 23.78023 | 117.18951 | 25696 ft | 422 kts | 252° |
| 2026-05-04 02:10 | 23.76965 | 117.15962 | 25696 ft | 423 kts | 245° |
| 2026-05-04 02:11 | 23.75533 | 117.13156 | 25700 ft | 424 kts | 239° |
| 2026-05-04 02:11 | 23.73827 | 117.10522 | 25694 ft | 426 kts | 233° |
| 2026-05-04 02:11 | 23.71811 | 117.08144 | 25698 ft | 427 kts | 229° |
| 2026-05-04 02:11 | 23.69733 | 117.05812 | 25675 ft | 428 kts | 229° |
| 2026-05-04 02:12 | 23.67655 | 117.03493 | 25693 ft | 428 kts | 229° |
| 2026-05-04 02:12 | 23.65575 | 117.01161 | 25682 ft | 429 kts | 229° |
| 2026-05-04 02:12 | 23.63503 | 116.98819 | 25682 ft | 429 kts | 229° |
| 2026-05-04 02:12 | 23.61436 | 116.96474 | 25687 ft | 429 kts | 229° |
| 2026-05-04 02:13 | 23.59366 | 116.94125 | 25686 ft | 430 kts | 229° |
| 2026-05-04 02:13 | 23.57294 | 116.91772 | 25686 ft | 430 kts | 229° |
| 2026-05-04 02:13 | 23.55228 | 116.89426 | 25686 ft | 430 kts | 229° |
| 2026-05-04 02:13 | 23.53152 | 116.87070 | 25683 ft | 430 kts | 229° |
| 2026-05-04 02:14 | 23.51077 | 116.84718 | 25691 ft | 430 kts | 229° |
| 2026-05-04 02:14 | 23.49006 | 116.82370 | 25688 ft | 430 kts | 229° |
| 2026-05-04 02:14 | 23.46931 | 116.80019 | 25670 ft | 430 kts | 229° |
| 2026-05-04 02:14 | 23.44859 | 116.77676 | 25679 ft | 430 kts | 229° |
| 2026-05-04 02:15 | 23.42663 | 116.75455 | 25684 ft | 433 kts | 222° |
| 2026-05-04 02:15 | 23.40274 | 116.73457 | 25693 ft | 433 kts | 220° |
| 2026-05-04 02:15 | 23.37858 | 116.71490 | 25688 ft | 434 kts | 220° |
| 2026-05-04 02:15 | 23.35442 | 116.69527 | 25690 ft | 434 kts | 220° |
| 2026-05-04 02:16 | 23.33026 | 116.67553 | 25687 ft | 434 kts | 220° |
| 2026-05-04 02:16 | 23.30624 | 116.65571 | 25709 ft | 433 kts | 221° |
| 2026-05-04 02:16 | 23.28246 | 116.63539 | 25675 ft | 434 kts | 221° |
| 2026-05-04 02:16 | 23.25842 | 116.61551 | 25685 ft | 434 kts | 220° |
| 2026-05-04 02:17 | 23.23433 | 116.59577 | 25679 ft | 434 kts | 220° |
| 2026-05-04 02:17 | 23.21020 | 116.57600 | 25671 ft | 434 kts | 220° |
| 2026-05-04 02:17 | 23.18609 | 116.55622 | 25680 ft | 434 kts | 220° |
| 2026-05-04 02:17 | 23.16199 | 116.53639 | 25685 ft | 435 kts | 220° |
| 2026-05-04 02:18 | 23.13791 | 116.51649 | 25682 ft | 435 kts | 220° |
| 2026-05-04 02:18 | 23.11386 | 116.49656 | 25666 ft | 435 kts | 220° |
| 2026-05-04 02:18 | 23.09028 | 116.47655 | 25646 ft | 434 kts | 224° |
| 2026-05-04 02:18 | 23.06679 | 116.45592 | 25674 ft | 436 kts | 220° |
| 2026-05-04 02:19 | 23.04229 | 116.43651 | 25683 ft | 436 kts | 219° |
| 2026-05-04 02:19 | 23.01786 | 116.41698 | 25677 ft | 437 kts | 220° |
| 2026-05-04 02:19 | 22.99355 | 116.39710 | 25676 ft | 437 kts | 221° |
| 2026-05-04 02:19 | 22.97194 | 116.37439 | 25666 ft | 431 kts | 235° |
| 2026-05-04 02:20 | 22.95637 | 116.34669 | 25678 ft | 429 kts | 245° |
| 2026-05-04 02:20 | 22.94563 | 116.31661 | 25667 ft | 428 kts | 255° |
| 2026-05-04 02:20 | 22.94102 | 116.28475 | 25679 ft | 428 kts | 263° |
| 2026-05-04 02:20 | 22.93813 | 116.25256 | 25668 ft | 428 kts | 263° |
| 2026-05-04 02:21 | 22.93521 | 116.22041 | 25668 ft | 428 kts | 263° |
| 2026-05-04 02:21 | 22.93214 | 116.18831 | 25667 ft | 428 kts | 263° |
| 2026-05-04 02:21 | 22.92892 | 116.15617 | 25666 ft | 428 kts | 263° |
| 2026-05-04 02:21 | 22.92561 | 116.12405 | 25672 ft | 428 kts | 262° |
| 2026-05-04 02:22 | 22.92227 | 116.09195 | 25668 ft | 428 kts | 262° |
| 2026-05-04 02:22 | 22.91891 | 116.05983 | 25666 ft | 428 kts | 262° |
| 2026-05-04 02:22 | 22.91557 | 116.02779 | 25668 ft | 428 kts | 262° |
| 2026-05-04 02:22 | 22.91229 | 115.99561 | 25672 ft | 428 kts | 263° |
| 2026-05-04 02:23 | 22.90910 | 115.96353 | 25675 ft | 428 kts | 263° |
| 2026-05-04 02:23 | 22.90593 | 115.93143 | 25683 ft | 428 kts | 263° |
| 2026-05-04 02:23 | 22.90272 | 115.89935 | 25677 ft | 427 kts | 262° |
| 2026-05-04 02:23 | 22.89954 | 115.86773 | 25673 ft | 427 kts | 262° |
| 2026-05-04 02:24 | 22.89626 | 115.83580 | 25664 ft | 426 kts | 262° |
| 2026-05-04 02:24 | 22.89301 | 115.80382 | 25665 ft | 426 kts | 263° |
| 2026-05-04 02:24 | 22.88986 | 115.77191 | 25670 ft | 425 kts | 263° |
| 2026-05-04 02:24 | 22.88670 | 115.74008 | 25662 ft | 424 kts | 263° |
| 2026-05-04 02:25 | 22.88349 | 115.70830 | 25673 ft | 424 kts | 262° |
| 2026-05-04 02:25 | 22.88025 | 115.67652 | 25674 ft | 424 kts | 262° |
| 2026-05-04 02:25 | 22.87697 | 115.64478 | 25669 ft | 424 kts | 262° |
| 2026-05-04 02:25 | 22.87374 | 115.61292 | 25674 ft | 424 kts | 262° |
| 2026-05-04 02:26 | 22.87051 | 115.58118 | 25669 ft | 424 kts | 262° |
| 2026-05-04 02:26 | 22.86726 | 115.54938 | 25670 ft | 424 kts | 262° |
| 2026-05-04 02:26 | 22.86402 | 115.51765 | 25665 ft | 424 kts | 262° |
| 2026-05-04 02:26 | 22.86077 | 115.48587 | 25667 ft | 424 kts | 262° |
| 2026-05-04 02:27 | 22.85753 | 115.45415 | 25669 ft | 424 kts | 262° |
| 2026-05-04 02:27 | 22.85427 | 115.42238 | 25647 ft | 424 kts | 262° |
| 2026-05-04 02:27 | 22.85101 | 115.39057 | 25658 ft | 425 kts | 262° |
| 2026-05-04 02:27 | 22.84773 | 115.35871 | 25665 ft | 426 kts | 262° |
| 2026-05-04 02:28 | 22.84443 | 115.32672 | 25681 ft | 427 kts | 262° |
| 2026-05-04 02:28 | 22.84112 | 115.29473 | 25673 ft | 428 kts | 262° |
| 2026-05-04 02:28 | 22.83780 | 115.26267 | 25665 ft | 428 kts | 262° |
| 2026-05-04 02:28 | 22.83448 | 115.23059 | 25666 ft | 428 kts | 262° |
| 2026-05-04 02:29 | 22.83119 | 115.19897 | 25667 ft | 428 kts | 262° |
| 2026-05-04 02:29 | 22.82785 | 115.16689 | 25671 ft | 428 kts | 262° |
| 2026-05-04 02:29 | 22.82451 | 115.13490 | 25668 ft | 428 kts | 262° |
| 2026-05-04 02:29 | 22.82117 | 115.10292 | 25656 ft | 425 kts | 262° |
| 2026-05-04 02:30 | 22.81784 | 115.07114 | 25646 ft | 425 kts | 262° |
| 2026-05-04 02:30 | 22.81450 | 115.03925 | 25648 ft | 426 kts | 262° |
| 2026-05-04 02:30 | 22.81116 | 115.00741 | 25603 ft | 424 kts | 262° |
| 2026-05-04 02:30 | 22.80784 | 114.97585 | 25349 ft | 419 kts | 262° |
| 2026-05-04 02:31 | 22.80456 | 114.94472 | 25115 ft | 414 kts | 262° |
| 2026-05-04 02:31 | 22.80128 | 114.91361 | 24897 ft | 416 kts | 262° |
| 2026-05-04 02:31 | 22.79799 | 114.88251 | 24674 ft | 415 kts | 262° |
| 2026-05-04 02:31 | 22.79472 | 114.85145 | 24458 ft | 415 kts | 262° |
| 2026-05-04 02:32 | 22.79149 | 114.82038 | 24233 ft | 415 kts | 262° |
| 2026-05-04 02:32 | 22.78822 | 114.78933 | 24013 ft | 414 kts | 262° |
| 2026-05-04 02:32 | 22.78484 | 114.75835 | 23798 ft | 414 kts | 261° |
| 2026-05-04 02:32 | 22.78144 | 114.72748 | 23575 ft | 413 kts | 261° |
| 2026-05-04 02:33 | 22.77815 | 114.69656 | 23307 ft | 412 kts | 262° |
| 2026-05-04 02:33 | 22.77494 | 114.66576 | 23049 ft | 411 kts | 262° |
| 2026-05-04 02:33 | 22.77179 | 114.63548 | 22795 ft | 409 kts | 262° |
| 2026-05-04 02:33 | 22.76862 | 114.60489 | 22542 ft | 407 kts | 262° |
| 2026-05-04 02:34 | 22.76553 | 114.57445 | 22291 ft | 405 kts | 262° |
| 2026-05-04 02:34 | 22.76234 | 114.54418 | 22038 ft | 403 kts | 262° |
| 2026-05-04 02:34 | 22.75916 | 114.51408 | 21831 ft | 400 kts | 262° |
| 2026-05-04 02:34 | 22.75609 | 114.48420 | 21782 ft | 399 kts | 262° |
| 2026-05-04 02:35 | 22.75306 | 114.45432 | 21770 ft | 399 kts | 262° |
| 2026-05-04 02:35 | 22.75003 | 114.42435 | 21532 ft | 400 kts | 262° |
| 2026-05-04 02:35 | 22.74702 | 114.39456 | 21291 ft | 396 kts | 262° |
| 2026-05-04 02:35 | 22.74401 | 114.36497 | 21050 ft | 394 kts | 263° |
| 2026-05-04 02:36 | 22.74101 | 114.33555 | 20811 ft | 392 kts | 263° |
| 2026-05-04 02:36 | 22.73801 | 114.30626 | 20565 ft | 391 kts | 263° |
| 2026-05-04 02:36 | 22.73501 | 114.27701 | 20326 ft | 390 kts | 263° |
| 2026-05-04 02:36 | 22.73202 | 114.24783 | 20091 ft | 389 kts | 263° |
| 2026-05-04 02:37 | 22.72901 | 114.21865 | 19859 ft | 389 kts | 263° |
| 2026-05-04 02:37 | 22.72604 | 114.18952 | 19629 ft | 388 kts | 264° |
| 2026-05-04 02:37 | 22.72313 | 114.16050 | 19400 ft | 387 kts | 264° |
| 2026-05-04 02:37 | 22.72017 | 114.13195 | 19174 ft | 386 kts | 263° |
| 2026-05-04 02:38 | 22.71808 | 114.11239 | 19024 ft | 385 kts | 264° |
| 2026-05-04 02:38 | 22.72063 | 114.07428 | 18714 ft | 387 kts | 285° |
| 2026-05-04 02:38 | 22.72738 | 114.05642 | 18580 ft | 388 kts | 295° |
| 2026-05-04 02:38 | 22.74280 | 114.03234 | 18361 ft | 391 kts | 308° |
| 2026-05-04 02:39 | 22.76308 | 114.01250 | 18098 ft | 396 kts | 322° |
| 2026-05-04 02:39 | 22.78783 | 113.99888 | 17852 ft | 401 kts | 332° |
| 2026-05-04 02:39 | 22.81369 | 113.98778 | 17756 ft | 399 kts | 333° |
| 2026-05-04 02:39 | 22.83968 | 113.97684 | 17769 ft | 401 kts | 333° |
| 2026-05-04 02:40 | 22.86561 | 113.96560 | 17767 ft | 401 kts | 332° |
| 2026-05-04 02:40 | 22.89150 | 113.95424 | 17769 ft | 402 kts | 334° |
| 2026-05-04 02:40 | 22.91888 | 113.94699 | 17768 ft | 410 kts | 346° |
| 2026-05-04 02:40 | 22.94732 | 113.94345 | 17762 ft | 411 kts | 348° |
| 2026-05-04 02:41 | 22.97586 | 113.94021 | 17580 ft | 413 kts | 348° |
| 2026-05-04 02:41 | 23.00429 | 113.93680 | 17323 ft | 409 kts | 348° |
| 2026-05-04 02:41 | 23.03253 | 113.93313 | 17075 ft | 408 kts | 347° |
| 2026-05-04 02:41 | 23.06031 | 113.92932 | 16835 ft | 407 kts | 347° |
| 2026-05-04 02:42 | 23.08874 | 113.92536 | 16578 ft | 406 kts | 347° |
| 2026-05-04 02:42 | 23.11644 | 113.92150 | 16353 ft | 406 kts | 347° |
| 2026-05-04 02:42 | 23.14441 | 113.91756 | 16101 ft | 405 kts | 345° |
| 2026-05-04 02:42 | 23.17069 | 113.90835 | 15843 ft | 392 kts | 325° |
| 2026-05-04 02:43 | 23.19152 | 113.89024 | 15619 ft | 380 kts | 307° |
| 2026-05-04 02:43 | 23.20614 | 113.86672 | 15412 ft | 373 kts | 293° |
| 2026-05-04 02:43 | 23.21492 | 113.84055 | 15145 ft | 368 kts | 279° |
| 2026-05-04 02:43 | 23.21748 | 113.81310 | 14929 ft | 364 kts | 271° |
| 2026-05-04 02:44 | 23.21830 | 113.78567 | 14696 ft | 362 kts | 270° |
| 2026-05-04 02:44 | 23.21891 | 113.75834 | 14465 ft | 361 kts | 270° |
| 2026-05-04 02:44 | 23.21969 | 113.73107 | 14239 ft | 361 kts | 270° |
| 2026-05-04 02:44 | 23.22064 | 113.70382 | 14012 ft | 360 kts | 270° |
| 2026-05-04 02:45 | 23.22167 | 113.67665 | 13774 ft | 360 kts | 270° |
| 2026-05-04 02:45 | 23.22271 | 113.64947 | 13520 ft | 359 kts | 270° |
| 2026-05-04 02:45 | 23.22372 | 113.62242 | 13252 ft | 358 kts | 270° |
| 2026-05-04 02:45 | 23.22475 | 113.59542 | 13012 ft | 357 kts | 270° |
| 2026-05-04 02:46 | 23.22578 | 113.56855 | 12754 ft | 354 kts | 270° |
| 2026-05-04 02:46 | 23.22678 | 113.54217 | 12507 ft | 343 kts | 270° |
| 2026-05-04 02:46 | 23.22774 | 113.51672 | 12250 ft | 331 kts | 270° |
| 2026-05-04 02:46 | 23.22866 | 113.49211 | 12008 ft | 320 kts | 270° |
| 2026-05-04 02:47 | 23.22956 | 113.46827 | 11755 ft | 311 kts | 270° |
| 2026-05-04 02:47 | 23.23040 | 113.44510 | 11503 ft | 302 kts | 270° |
| 2026-05-04 02:47 | 23.22943 | 113.42293 | 11300 ft | 295 kts | 256° |
| 2026-05-04 02:47 | 23.22105 | 113.40290 | 11062 ft | 291 kts | 237° |
| 2026-05-04 02:48 | 23.20742 | 113.38687 | 10831 ft | 289 kts | 223° |
| 2026-05-04 02:48 | 23.19015 | 113.37563 | 10551 ft | 291 kts | 205° |
| 2026-05-04 02:48 | 23.17078 | 113.36938 | 10317 ft | 289 kts | 199° |
| 2026-05-04 02:48 | 23.15131 | 113.36440 | 10082 ft | 286 kts | 198° |
| 2026-05-04 02:49 | 23.13203 | 113.35950 | 9849 ft | 282 kts | 198° |
| 2026-05-04 02:49 | 23.11322 | 113.35457 | 9774 ft | 272 kts | 199° |
| 2026-05-04 02:49 | 23.09523 | 113.34979 | 9753 ft | 260 kts | 199° |
| 2026-05-04 02:49 | 23.07794 | 113.34516 | 9598 ft | 255 kts | 199° |
| 2026-05-04 02:50 | 23.06050 | 113.34043 | 9196 ft | 259 kts | 199° |
| 2026-05-04 02:50 | 23.04287 | 113.33565 | 8842 ft | 261 kts | 198° |
| 2026-05-04 02:50 | 23.02542 | 113.33095 | 8491 ft | 256 kts | 198° |
| 2026-05-04 02:50 | 23.00814 | 113.32630 | 7872 ft | 255 kts | 198° |
| 2026-05-04 02:51 | 22.99124 | 113.32175 | 7311 ft | 252 kts | 198° |
| 2026-05-04 02:51 | 22.97447 | 113.31724 | 6838 ft | 246 kts | 197° |
| 2026-05-04 02:51 | 22.95826 | 113.31221 | 6344 ft | 238 kts | 207° |
| 2026-05-04 02:51 | 22.94598 | 113.30102 | 5837 ft | 230 kts | 239° |
| 2026-05-04 02:52 | 22.94144 | 113.28486 | 5355 ft | 225 kts | 271° |
| 2026-05-04 02:52 | 22.94443 | 113.26838 | 4902 ft | 222 kts | 291° |
| 2026-05-04 02:52 | 22.95317 | 113.25499 | 4386 ft | 218 kts | 326° |
| 2026-05-04 02:52 | 22.96677 | 113.24839 | 3912 ft | 214 kts | 345° |
| 2026-05-04 02:53 | 22.98102 | 113.24373 | 3474 ft | 212 kts | 346° |
| 2026-05-04 02:53 | 22.99475 | 113.23925 | 3297 ft | 201 kts | 347° |
| 2026-05-04 02:53 | 23.00785 | 113.23489 | 3181 ft | 194 kts | 347° |
| 2026-05-04 02:53 | 23.02073 | 113.23055 | 3065 ft | 193 kts | 346° |
| 2026-05-04 02:54 | 23.03267 | 113.22463 | 2971 ft | 186 kts | 334° |
| 2026-05-04 02:54 | 23.04386 | 113.21883 | 2937 ft | 175 kts | 359° |
| 2026-05-04 02:54 | 23.05510 | 113.22175 | 2970 ft | 167 kts | 22° |
| 2026-05-04 02:54 | 23.06640 | 113.22523 | 2962 ft | 169 kts | 18° |
| 2026-05-04 02:55 | 23.08928 | 113.23152 | 2947 ft | 168 kts | 18° |
| 2026-05-04 02:55 | 23.10061 | 113.23460 | 2959 ft | 168 kts | 18° |
| 2026-05-04 02:55 | 23.11198 | 113.23770 | 2951 ft | 168 kts | 18° |
| 2026-05-04 02:56 | 23.12326 | 113.24077 | 2967 ft | 166 kts | 18° |
| 2026-05-04 02:56 | 23.13448 | 113.24382 | 2946 ft | 165 kts | 18° |
| 2026-05-04 02:56 | 23.14554 | 113.24682 | 2951 ft | 163 kts | 18° |
| 2026-05-04 02:56 | 23.15678 | 113.24989 | 2968 ft | 170 kts | 17° |
| 2026-05-04 02:57 | 23.16829 | 113.25302 | 2959 ft | 170 kts | 17° |
| 2026-05-04 02:57 | 23.17972 | 113.25612 | 2950 ft | 168 kts | 17° |
| 2026-05-04 02:57 | 23.19100 | 113.25918 | 2945 ft | 167 kts | 17° |
| 2026-05-04 02:57 | 23.20209 | 113.26219 | 2950 ft | 166 kts | 17° |
| 2026-05-04 02:58 | 23.21294 | 113.26517 | 2978 ft | 154 kts | 17° |
| 2026-05-04 02:58 | 23.22291 | 113.26786 | 2921 ft | 147 kts | 17° |
| 2026-05-04 02:58 | 23.23283 | 113.27055 | 2759 ft | 146 kts | 18° |
| 2026-05-04 02:58 | 23.24257 | 113.27320 | 2569 ft | 142 kts | 18° |
| 2026-05-04 02:59 | 23.25207 | 113.27578 | 2386 ft | 140 kts | 17° |
| 2026-05-04 02:59 | 23.26154 | 113.27836 | 2207 ft | 142 kts | 16° |
| 2026-05-04 02:59 | 23.27116 | 113.28098 | 2031 ft | 143 kts | 15° |
| 2026-05-04 02:59 | 23.28077 | 113.28359 | 1835 ft | 141 kts | 15° |
| 2026-05-04 03:00 | 23.29029 | 113.28617 | 1655 ft | 143 kts | 15° |
| 2026-05-04 03:00 | 23.30001 | 113.28882 | 1457 ft | 143 kts | 15° |
| 2026-05-04 03:00 | 23.30956 | 113.29141 | 1277 ft | 141 kts | 14° |
| 2026-05-04 03:00 | 23.31898 | 113.29397 | 1091 ft | 139 kts | 14° |
| 2026-05-04 03:01 | 23.32848 | 113.29653 | 915 ft | 142 kts | 15° |
| 2026-05-04 03:01 | 23.33824 | 113.29913 | 737 ft | 146 kts | 15° |
| 2026-05-04 03:01 | 23.34821 | 113.30192 | 498 ft | 149 kts | 15° |
| 2026-05-04 03:01 | 23.35830 | 113.30465 | 307 ft | 148 kts | 15° |
| 2026-05-04 03:02 | 23.36829 | 113.30733 | 155 ft | 148 kts | 15° |
| 2026-05-04 03:02 | 23.37822 | 113.31005 | 53 ft | 140 kts | 15° |
| 2026-05-04 03:02 | 23.38572 | 113.31206 | 51 ft | 80 kts | 14° |
| 2026-05-04 03:02 | 23.38932 | 113.31301 | 51 ft | 41 kts | 8° |
| 2026-05-04 03:03 | 23.39158 | 113.31262 | 57 ft | 30 kts | 345° |
| 2026-05-04 03:03 | 23.39352 | 113.31220 | 54 ft | 27 kts | 2° |
| 2026-05-04 03:03 | 23.39488 | 113.31255 | 53 ft | 19 kts | 12° |
| 2026-05-04 03:03 | 23.39646 | 113.31296 | 54 ft | 27 kts | 13° |
| 2026-05-04 03:04 | 23.39824 | 113.31345 | 54 ft | 25 kts | 14° |
| 2026-05-04 03:04 | 23.39990 | 113.31389 | 52 ft | 24 kts | 13° |
| 2026-05-04 03:04 | 23.40145 | 113.31431 | 53 ft | 23 kts | 15° |
| 2026-05-04 03:04 | 23.40288 | 113.31470 | 52 ft | 17 kts | 8° |
| 2026-05-04 03:05 | 23.40334 | 113.31400 | 55 ft | 12 kts | 282° |
| 2026-05-04 03:05 | 23.40362 | 113.31276 | 51 ft | 21 kts | 284° |
| 2026-05-04 03:05 | 23.40395 | 113.31129 | 55 ft | 19 kts | 283° |
| 2026-05-04 03:05 | 23.40427 | 113.30994 | 57 ft | 18 kts | 284° |
| 2026-05-04 03:06 | 23.40456 | 113.30862 | 57 ft | 18 kts | 284° |
| 2026-05-04 03:06 | 23.40485 | 113.30736 | 57 ft | 17 kts | 285° |
| 2026-05-04 03:06 | 23.40514 | 113.30613 | 57 ft | 19 kts | 284° |
| 2026-05-04 03:06 | 23.40558 | 113.30418 | 57 ft | 29 kts | 284° |
| 2026-05-04 03:07 | 23.40603 | 113.30213 | 58 ft | 27 kts | 284° |
| 2026-05-04 03:07 | 23.40648 | 113.30023 | 52 ft | 25 kts | 283° |
| 2026-05-04 03:07 | 23.40689 | 113.29843 | 54 ft | 23 kts | 284° |
| 2026-05-04 03:07 | 23.40727 | 113.29674 | 56 ft | 23 kts | 283° |
| 2026-05-04 03:08 | 23.40766 | 113.29512 | 54 ft | 22 kts | 286° |
| 2026-05-04 03:08 | 23.40784 | 113.29414 | 58 ft | 10 kts | 267° |
| 2026-05-04 03:08 | 23.40754 | 113.29374 | 56 ft | 12 kts | 205° |
| 2026-05-04 03:08 | 23.40695 | 113.29399 | 56 ft | 10 kts | 104° |
| 2026-05-04 03:09 | 23.40680 | 113.29473 | 56 ft | 10 kts | 104° |
| 2026-05-04 03:09 | 23.40639 | 113.29520 | 56 ft | 10 kts | 186° |
| 2026-05-04 03:09 | 23.40545 | 113.29496 | 56 ft | 20 kts | 194° |
| 2026-05-04 03:09 | 23.40406 | 113.29459 | 52 ft | 21 kts | 193° |
| 2026-05-04 03:10 | 23.40293 | 113.29451 | 56 ft | 0 kts | 134° |
| 2026-05-04 03:10 | 23.40289 | 113.29454 | 49 ft | 8 kts | 145° |
| 2026-05-04 03:10 | 23.40231 | 113.29518 | 58 ft | 10 kts | 105° |
| 2026-05-04 03:10 | 23.40219 | 113.29571 | 58 ft | 6 kts | 104° |
| 2026-05-04 03:11 | 23.40210 | 113.29616 | 58 ft | 6 kts | 93° |
| 2026-05-04 03:11 | 23.40187 | 113.29654 | 55 ft | 6 kts | 129° |
| 2026-05-04 03:11 | 23.40188 | 113.29699 | 58 ft | 6 kts | 73° |
| 2026-05-04 03:11 | 23.40196 | 113.29729 | 55 ft | 1 kts | 73° |
| 2026-05-04 03:12 | 23.40197 | 113.29731 | 55 ft | 0 kts | 73° |